sensor_id;sensor_type;location;lat;lon;timestamp;P1;durP1;ratioP1;P2;durP2;ratioP2
56712;SDS011;42589;45.536;9.032;2022-12-07T00:02:46;68.20;;;46.55;;
56712;SDS011;42589;45.536;9.032;2022-12-07T00:05:47;66.43;;;47.63;;
56712;SDS011;42589;45.536;9.032;2022-12-07T00:08:47;66.53;;;47.75;;
56712;SDS011;42589;45.536;9.032;2022-12-07T00:11:49;67.55;;;47.20;;
56712;SDS011;42589;45.536;9.032;2022-12-07T00:14:53;64.70;;;46.88;;
56712;SDS011;42589;45.536;9.032;2022-12-07T00:17:59;70.78;;;47.17;;
56712;SDS011;42589;45.536;9.032;2022-12-07T00:21:01;64.75;;;46.47;;
56712;SDS011;42589;45.536;9.032;2022-12-07T00:24:02;61.78;;;44.58;;
56712;SDS011;42589;45.536;9.032;2022-12-07T00:27:03;68.45;;;43.65;;
56712;SDS011;42589;45.536;9.032;2022-12-07T00:30:04;56.90;;;42.20;;
56712;SDS011;42589;45.536;9.032;2022-12-07T00:33:05;60.05;;;42.47;;
56712;SDS011;42589;45.536;9.032;2022-12-07T00:36:07;64.32;;;42.42;;
56712;SDS011;42589;45.536;9.032;2022-12-07T00:39:08;55.03;;;41.15;;
56712;SDS011;42589;45.536;9.032;2022-12-07T00:42:09;54.88;;;39.28;;
56712;SDS011;42589;45.536;9.032;2022-12-07T00:45:12;53.85;;;40.10;;
56712;SDS011;42589;45.536;9.032;2022-12-07T00:48:14;60.17;;;39.13;;
56712;SDS011;42589;45.536;9.032;2022-12-07T00:51:16;60.17;;;40.60;;
56712;SDS011;42589;45.536;9.032;2022-12-07T00:54:17;58.03;;;39.30;;
56712;SDS011;42589;45.536;9.032;2022-12-07T00:57:18;58.60;;;39.22;;
56712;SDS011;42589;45.536;9.032;2022-12-07T01:00:18;54.60;;;38.03;;
56712;SDS011;42589;45.536;9.032;2022-12-07T01:03:19;51.72;;;37.30;;
56712;SDS011;42589;45.536;9.032;2022-12-07T01:06:20;56.67;;;40.95;;
56712;SDS011;42589;45.536;9.032;2022-12-07T01:09:21;56.95;;;38.45;;
56712;SDS011;42589;45.536;9.032;2022-12-07T01:12:22;58.78;;;39.80;;
56712;SDS011;42589;45.536;9.032;2022-12-07T01:15:22;55.38;;;39.65;;
56712;SDS011;42589;45.536;9.032;2022-12-07T01:18:23;52.88;;;37.45;;
56712;SDS011;42589;45.536;9.032;2022-12-07T01:21:34;53.58;;;38.00;;
56712;SDS011;42589;45.536;9.032;2022-12-07T01:24:35;49.58;;;37.40;;
56712;SDS011;42589;45.536;9.032;2022-12-07T01:27:36;49.95;;;36.08;;
56712;SDS011;42589;45.536;9.032;2022-12-07T01:30:37;51.72;;;37.00;;
56712;SDS011;42589;45.536;9.032;2022-12-07T01:33:38;50.17;;;36.47;;
56712;SDS011;42589;45.536;9.032;2022-12-07T01:36:39;47.58;;;34.05;;
56712;SDS011;42589;45.536;9.032;2022-12-07T01:39:39;45.75;;;34.97;;
56712;SDS011;42589;45.536;9.032;2022-12-07T01:42:41;48.30;;;34.05;;
56712;SDS011;42589;45.536;9.032;2022-12-07T01:45:42;46.40;;;34.60;;
56712;SDS011;42589;45.536;9.032;2022-12-07T01:48:43;46.28;;;33.17;;
56712;SDS011;42589;45.536;9.032;2022-12-07T01:51:44;46.67;;;32.33;;
56712;SDS011;42589;45.536;9.032;2022-12-07T01:54:47;45.47;;;33.15;;
56712;SDS011;42589;45.536;9.032;2022-12-07T01:57:49;43.33;;;31.85;;
56712;SDS011;42589;45.536;9.032;2022-12-07T02:00:51;44.22;;;30.05;;
56712;SDS011;42589;45.536;9.032;2022-12-07T02:03:51;40.80;;;30.95;;
56712;SDS011;42589;45.536;9.032;2022-12-07T02:06:52;43.83;;;30.15;;
56712;SDS011;42589;45.536;9.032;2022-12-07T02:09:54;41.38;;;29.13;;
56712;SDS011;42589;45.536;9.032;2022-12-07T02:13:00;42.25;;;29.90;;
56712;SDS011;42589;45.536;9.032;2022-12-07T02:19:23;41.50;;;29.13;;
56712;SDS011;42589;45.536;9.032;2022-12-07T02:22:50;39.45;;;28.70;;
56712;SDS011;42589;45.536;9.032;2022-12-07T02:32:07;35.53;;;25.58;;
56712;SDS011;42589;45.536;9.032;2022-12-07T02:35:27;33.75;;;24.75;;
56712;SDS011;42589;45.536;9.032;2022-12-07T02:38:39;32.67;;;24.20;;
56712;SDS011;42589;45.536;9.032;2022-12-07T02:41:46;34.15;;;23.63;;
56712;SDS011;42589;45.536;9.032;2022-12-07T02:44:48;27.77;;;21.77;;
56712;SDS011;42589;45.536;9.032;2022-12-07T02:47:51;30.38;;;22.92;;
56712;SDS011;42589;45.536;9.032;2022-12-07T02:50:52;31.50;;;22.80;;
56712;SDS011;42589;45.536;9.032;2022-12-07T02:53:53;32.15;;;22.67;;
56712;SDS011;42589;45.536;9.032;2022-12-07T03:00:11;30.27;;;21.88;;
56712;SDS011;42589;45.536;9.032;2022-12-07T03:03:12;31.55;;;22.52;;
56712;SDS011;42589;45.536;9.032;2022-12-07T03:09:19;29.90;;;20.67;;
56712;SDS011;42589;45.536;9.032;2022-12-07T03:12:21;28.05;;;19.77;;
56712;SDS011;42589;45.536;9.032;2022-12-07T03:15:31;26.15;;;19.30;;
56712;SDS011;42589;45.536;9.032;2022-12-07T03:18:38;26.25;;;18.77;;
56712;SDS011;42589;45.536;9.032;2022-12-07T03:21:41;24.77;;;17.50;;
56712;SDS011;42589;45.536;9.032;2022-12-07T03:24:45;24.60;;;18.55;;
56712;SDS011;42589;45.536;9.032;2022-12-07T03:27:57;24.83;;;19.05;;
56712;SDS011;42589;45.536;9.032;2022-12-07T03:31:10;26.80;;;19.55;;
56712;SDS011;42589;45.536;9.032;2022-12-07T03:34:18;28.10;;;19.83;;
56712;SDS011;42589;45.536;9.032;2022-12-07T03:37:26;25.00;;;18.35;;
56712;SDS011;42589;45.536;9.032;2022-12-07T03:40:30;28.27;;;18.42;;
56712;SDS011;42589;45.536;9.032;2022-12-07T03:43:33;28.10;;;19.17;;
56712;SDS011;42589;45.536;9.032;2022-12-07T03:46:37;25.65;;;18.55;;
56712;SDS011;42589;45.536;9.032;2022-12-07T03:53:00;24.58;;;18.38;;
56712;SDS011;42589;45.536;9.032;2022-12-07T03:56:03;23.02;;;17.65;;
56712;SDS011;42589;45.536;9.032;2022-12-07T03:59:05;23.30;;;18.20;;
56712;SDS011;42589;45.536;9.032;2022-12-07T04:02:06;24.85;;;17.95;;
56712;SDS011;42589;45.536;9.032;2022-12-07T04:05:07;23.35;;;17.90;;
56712;SDS011;42589;45.536;9.032;2022-12-07T04:08:08;22.52;;;16.65;;
56712;SDS011;42589;45.536;9.032;2022-12-07T04:11:09;24.20;;;17.45;;
56712;SDS011;42589;45.536;9.032;2022-12-07T04:14:10;21.98;;;16.00;;
56712;SDS011;42589;45.536;9.032;2022-12-07T04:17:19;21.08;;;15.73;;
56712;SDS011;42589;45.536;9.032;2022-12-07T04:20:20;20.45;;;14.95;;
56712;SDS011;42589;45.536;9.032;2022-12-07T04:23:21;22.90;;;15.65;;
56712;SDS011;42589;45.536;9.032;2022-12-07T04:26:22;22.27;;;14.95;;
56712;SDS011;42589;45.536;9.032;2022-12-07T04:29:23;19.75;;;15.00;;
56712;SDS011;42589;45.536;9.032;2022-12-07T04:32:23;22.52;;;16.08;;
56712;SDS011;42589;45.536;9.032;2022-12-07T04:35:24;23.58;;;15.82;;
56712;SDS011;42589;45.536;9.032;2022-12-07T04:38:25;20.95;;;15.43;;
56712;SDS011;42589;45.536;9.032;2022-12-07T04:41:26;20.90;;;14.98;;
56712;SDS011;42589;45.536;9.032;2022-12-07T04:44:29;20.90;;;15.68;;
56712;SDS011;42589;45.536;9.032;2022-12-07T04:47:30;19.52;;;14.85;;
56712;SDS011;42589;45.536;9.032;2022-12-07T04:50:31;19.85;;;15.27;;
56712;SDS011;42589;45.536;9.032;2022-12-07T04:53:32;21.88;;;15.25;;
56712;SDS011;42589;45.536;9.032;2022-12-07T04:56:32;20.30;;;14.50;;
56712;SDS011;42589;45.536;9.032;2022-12-07T04:59:35;22.60;;;16.25;;
56712;SDS011;42589;45.536;9.032;2022-12-07T05:02:35;20.92;;;15.13;;
56712;SDS011;42589;45.536;9.032;2022-12-07T05:05:39;22.08;;;15.55;;
56712;SDS011;42589;45.536;9.032;2022-12-07T05:08:40;20.13;;;14.83;;
56712;SDS011;42589;45.536;9.032;2022-12-07T05:11:41;18.55;;;14.82;;
56712;SDS011;42589;45.536;9.032;2022-12-07T05:14:41;20.80;;;14.82;;
56712;SDS011;42589;45.536;9.032;2022-12-07T05:17:42;18.67;;;14.35;;
56712;SDS011;42589;45.536;9.032;2022-12-07T05:20:45;21.27;;;13.73;;
56712;SDS011;42589;45.536;9.032;2022-12-07T05:23:45;20.20;;;14.70;;
56712;SDS011;42589;45.536;9.032;2022-12-07T05:26:46;17.88;;;14.25;;
56712;SDS011;42589;45.536;9.032;2022-12-07T05:29:47;20.08;;;15.05;;
56712;SDS011;42589;45.536;9.032;2022-12-07T05:32:48;21.23;;;15.18;;
56712;SDS011;42589;45.536;9.032;2022-12-07T05:35:48;20.02;;;14.98;;
56712;SDS011;42589;45.536;9.032;2022-12-07T05:38:49;19.25;;;14.32;;
56712;SDS011;42589;45.536;9.032;2022-12-07T05:41:53;19.63;;;14.52;;
56712;SDS011;42589;45.536;9.032;2022-12-07T05:45:12;21.65;;;15.25;;
56712;SDS011;42589;45.536;9.032;2022-12-07T05:48:13;19.73;;;14.55;;
56712;SDS011;42589;45.536;9.032;2022-12-07T05:51:15;18.08;;;14.35;;
56712;SDS011;42589;45.536;9.032;2022-12-07T05:54:16;19.90;;;14.98;;
56712;SDS011;42589;45.536;9.032;2022-12-07T05:57:16;18.48;;;14.00;;
56712;SDS011;42589;45.536;9.032;2022-12-07T06:00:17;20.63;;;15.00;;
56712;SDS011;42589;45.536;9.032;2022-12-07T06:03:17;20.27;;;14.60;;
56712;SDS011;42589;45.536;9.032;2022-12-07T06:06:18;20.70;;;14.98;;
56712;SDS011;42589;45.536;9.032;2022-12-07T06:09:22;20.92;;;14.32;;
56712;SDS011;42589;45.536;9.032;2022-12-07T06:12:23;19.58;;;15.05;;
56712;SDS011;42589;45.536;9.032;2022-12-07T06:15:38;20.67;;;14.52;;
56712;SDS011;42589;45.536;9.032;2022-12-07T06:18:39;19.40;;;14.85;;
56712;SDS011;42589;45.536;9.032;2022-12-07T06:21:40;20.55;;;15.10;;
56712;SDS011;42589;45.536;9.032;2022-12-07T06:24:41;20.30;;;14.50;;
56712;SDS011;42589;45.536;9.032;2022-12-07T06:27:41;20.83;;;15.05;;
56712;SDS011;42589;45.536;9.032;2022-12-07T06:30:42;18.70;;;14.57;;
56712;SDS011;42589;45.536;9.032;2022-12-07T06:33:43;19.88;;;16.10;;
56712;SDS011;42589;45.536;9.032;2022-12-07T06:36:43;24.90;;;15.90;;
56712;SDS011;42589;45.536;9.032;2022-12-07T06:39:44;22.90;;;15.48;;
56712;SDS011;42589;45.536;9.032;2022-12-07T06:42:45;22.73;;;15.55;;
56712;SDS011;42589;45.536;9.032;2022-12-07T06:45:46;21.73;;;15.40;;
56712;SDS011;42589;45.536;9.032;2022-12-07T06:48:48;22.10;;;16.13;;
56712;SDS011;42589;45.536;9.032;2022-12-07T06:51:48;20.23;;;14.82;;
56712;SDS011;42589;45.536;9.032;2022-12-07T06:54:48;21.13;;;14.85;;
56712;SDS011;42589;45.536;9.032;2022-12-07T06:57:49;21.00;;;14.82;;
56712;SDS011;42589;45.536;9.032;2022-12-07T07:00:50;19.35;;;14.10;;
56712;SDS011;42589;45.536;9.032;2022-12-07T07:03:52;19.52;;;14.63;;
56712;SDS011;42589;45.536;9.032;2022-12-07T07:06:53;21.48;;;15.20;;
56712;SDS011;42589;45.536;9.032;2022-12-07T07:09:53;20.35;;;14.95;;
56712;SDS011;42589;45.536;9.032;2022-12-07T07:12:54;19.92;;;14.45;;
56712;SDS011;42589;45.536;9.032;2022-12-07T07:15:55;23.08;;;15.38;;
56712;SDS011;42589;45.536;9.032;2022-12-07T07:18:56;20.95;;;15.30;;
56712;SDS011;42589;45.536;9.032;2022-12-07T07:21:57;22.75;;;16.23;;
56712;SDS011;42589;45.536;9.032;2022-12-07T07:24:58;30.25;;;20.92;;
56712;SDS011;42589;45.536;9.032;2022-12-07T07:27:58;32.10;;;23.02;;
56712;SDS011;42589;45.536;9.032;2022-12-07T07:30:59;34.40;;;23.70;;
56712;SDS011;42589;45.536;9.032;2022-12-07T07:33:59;36.47;;;24.50;;
56712;SDS011;42589;45.536;9.032;2022-12-07T07:37:01;35.40;;;24.23;;
56712;SDS011;42589;45.536;9.032;2022-12-07T07:40:02;34.92;;;23.67;;
56712;SDS011;42589;45.536;9.032;2022-12-07T07:43:03;38.15;;;25.20;;
56712;SDS011;42589;45.536;9.032;2022-12-07T07:46:04;37.05;;;25.98;;
56712;SDS011;42589;45.536;9.032;2022-12-07T07:49:04;36.83;;;27.45;;
56712;SDS011;42589;45.536;9.032;2022-12-07T07:52:06;42.33;;;29.02;;
56712;SDS011;42589;45.536;9.032;2022-12-07T07:55:06;43.22;;;30.23;;
56712;SDS011;42589;45.536;9.032;2022-12-07T07:58:08;40.83;;;29.70;;
56712;SDS011;42589;45.536;9.032;2022-12-07T08:01:09;38.88;;;30.27;;
56712;SDS011;42589;45.536;9.032;2022-12-07T08:04:09;44.75;;;31.65;;
56712;SDS011;42589;45.536;9.032;2022-12-07T08:07:10;42.28;;;30.73;;
56712;SDS011;42589;45.536;9.032;2022-12-07T08:10:11;40.88;;;30.95;;
56712;SDS011;42589;45.536;9.032;2022-12-07T08:13:14;45.00;;;32.08;;
56712;SDS011;42589;45.536;9.032;2022-12-07T08:16:15;41.33;;;31.08;;
56712;SDS011;42589;45.536;9.032;2022-12-07T08:19:16;41.90;;;30.13;;
56712;SDS011;42589;45.536;9.032;2022-12-07T08:22:17;41.72;;;28.73;;
56712;SDS011;42589;45.536;9.032;2022-12-07T08:25:20;36.70;;;28.92;;
56712;SDS011;42589;45.536;9.032;2022-12-07T08:28:24;35.55;;;28.27;;
56712;SDS011;42589;45.536;9.032;2022-12-07T08:31:24;35.75;;;27.10;;
56712;SDS011;42589;45.536;9.032;2022-12-07T08:34:25;33.83;;;26.80;;
56712;SDS011;42589;45.536;9.032;2022-12-07T08:37:25;35.75;;;27.20;;
56712;SDS011;42589;45.536;9.032;2022-12-07T08:40:26;37.50;;;27.48;;
56712;SDS011;42589;45.536;9.032;2022-12-07T08:43:27;35.75;;;27.30;;
56712;SDS011;42589;45.536;9.032;2022-12-07T08:46:33;31.50;;;26.58;;
56712;SDS011;42589;45.536;9.032;2022-12-07T08:49:38;32.65;;;24.73;;
56712;SDS011;42589;45.536;9.032;2022-12-07T08:52:40;35.58;;;27.38;;
56712;SDS011;42589;45.536;9.032;2022-12-07T08:55:43;31.38;;;25.98;;
56712;SDS011;42589;45.536;9.032;2022-12-07T08:58:45;30.20;;;24.35;;
56712;SDS011;42589;45.536;9.032;2022-12-07T09:01:46;33.22;;;26.05;;
56712;SDS011;42589;45.536;9.032;2022-12-07T09:04:47;33.60;;;26.50;;
56712;SDS011;42589;45.536;9.032;2022-12-07T09:07:48;31.40;;;24.77;;
56712;SDS011;42589;45.536;9.032;2022-12-07T09:10:51;35.17;;;26.50;;
56712;SDS011;42589;45.536;9.032;2022-12-07T09:13:52;34.28;;;26.00;;
56712;SDS011;42589;45.536;9.032;2022-12-07T09:16:53;31.85;;;25.58;;
56712;SDS011;42589;45.536;9.032;2022-12-07T09:19:53;32.53;;;25.48;;
56712;SDS011;42589;45.536;9.032;2022-12-07T09:22:54;34.22;;;25.10;;
56712;SDS011;42589;45.536;9.032;2022-12-07T09:25:58;32.80;;;26.52;;
56712;SDS011;42589;45.536;9.032;2022-12-07T09:28:59;33.08;;;25.95;;
56712;SDS011;42589;45.536;9.032;2022-12-07T09:31:59;32.10;;;25.88;;
56712;SDS011;42589;45.536;9.032;2022-12-07T09:35:00;37.47;;;26.98;;
56712;SDS011;42589;45.536;9.032;2022-12-07T09:38:00;35.47;;;27.02;;
56712;SDS011;42589;45.536;9.032;2022-12-07T09:41:05;34.97;;;26.40;;
56712;SDS011;42589;45.536;9.032;2022-12-07T09:44:09;37.42;;;27.40;;
56712;SDS011;42589;45.536;9.032;2022-12-07T09:47:11;32.53;;;26.15;;
56712;SDS011;42589;45.536;9.032;2022-12-07T09:50:13;37.15;;;25.52;;
56712;SDS011;42589;45.536;9.032;2022-12-07T09:53:16;34.42;;;24.95;;
56712;SDS011;42589;45.536;9.032;2022-12-07T09:59:20;33.65;;;25.35;;
56712;SDS011;42589;45.536;9.032;2022-12-07T10:06:04;34.75;;;26.60;;
56712;SDS011;42589;45.536;9.032;2022-12-07T10:08:45;31.98;;;25.42;;
56712;SDS011;42589;45.536;9.032;2022-12-07T10:15:05;33.83;;;26.25;;
56712;SDS011;42589;45.536;9.032;2022-12-07T10:18:17;33.67;;;25.40;;
56712;SDS011;42589;45.536;9.032;2022-12-07T10:24:23;30.70;;;24.55;;
56712;SDS011;42589;45.536;9.032;2022-12-07T10:27:31;32.10;;;25.95;;
56712;SDS011;42589;45.536;9.032;2022-12-07T10:30:32;31.67;;;24.95;;
56712;SDS011;42589;45.536;9.032;2022-12-07T10:33:37;32.25;;;26.25;;
56712;SDS011;42589;45.536;9.032;2022-12-07T10:39:44;34.10;;;27.20;;
56712;SDS011;42589;45.536;9.032;2022-12-07T10:42:44;32.92;;;26.02;;
56712;SDS011;42589;45.536;9.032;2022-12-07T10:46:07;37.88;;;28.75;;
56712;SDS011;42589;45.536;9.032;2022-12-07T10:49:19;44.30;;;31.75;;
56712;SDS011;42589;45.536;9.032;2022-12-07T11:07:59;45.28;;;34.83;;
56712;SDS011;42589;45.536;9.032;2022-12-07T11:17:16;46.38;;;34.55;;
56712;SDS011;42589;45.536;9.032;2022-12-07T11:29:49;36.38;;;28.85;;
56712;SDS011;42589;45.536;9.032;2022-12-07T11:36:14;38.35;;;31.08;;
56712;SDS011;42589;45.536;9.032;2022-12-07T11:42:46;45.78;;;33.50;;
56712;SDS011;42589;45.536;9.032;2022-12-07T11:45:54;44.38;;;32.35;;
56712;SDS011;42589;45.536;9.032;2022-12-07T11:52:26;51.58;;;35.58;;
56712;SDS011;42589;45.536;9.032;2022-12-07T12:01:52;53.42;;;38.55;;
56712;SDS011;42589;45.536;9.032;2022-12-07T12:14:30;52.92;;;37.85;;
56712;SDS011;42589;45.536;9.032;2022-12-07T12:20:41;64.25;;;43.95;;
56712;SDS011;42589;45.536;9.032;2022-12-07T12:23:44;63.50;;;42.17;;
56712;SDS011;42589;45.536;9.032;2022-12-07T12:26:50;67.47;;;44.13;;
56712;SDS011;42589;45.536;9.032;2022-12-07T12:29:53;66.07;;;43.75;;
56712;SDS011;42589;45.536;9.032;2022-12-07T12:32:54;70.93;;;48.53;;
56712;SDS011;42589;45.536;9.032;2022-12-07T12:36:16;75.22;;;49.67;;
56712;SDS011;42589;45.536;9.032;2022-12-07T12:39:18;77.32;;;50.78;;
56712;SDS011;42589;45.536;9.032;2022-12-07T12:42:21;82.70;;;53.72;;
56712;SDS011;42589;45.536;9.032;2022-12-07T12:45:29;85.30;;;55.72;;
56712;SDS011;42589;45.536;9.032;2022-12-07T12:48:30;94.25;;;58.97;;
56712;SDS011;42589;45.536;9.032;2022-12-07T12:51:36;90.47;;;60.30;;
56712;SDS011;42589;45.536;9.032;2022-12-07T12:54:38;90.60;;;60.28;;
56712;SDS011;42589;45.536;9.032;2022-12-07T12:57:39;91.70;;;56.63;;
56712;SDS011;42589;45.536;9.032;2022-12-07T13:00:40;98.07;;;60.45;;
56712;SDS011;42589;45.536;9.032;2022-12-07T13:03:41;98.20;;;59.80;;
56712;SDS011;42589;45.536;9.032;2022-12-07T13:06:52;97.60;;;59.50;;
56712;SDS011;42589;45.536;9.032;2022-12-07T13:09:53;104.28;;;61.65;;
56712;SDS011;42589;45.536;9.032;2022-12-07T13:25:41;116.85;;;66.28;;
56712;SDS011;42589;45.536;9.032;2022-12-07T13:31:49;104.70;;;59.42;;
56712;SDS011;42589;45.536;9.032;2022-12-07T13:34:49;107.75;;;59.40;;
56712;SDS011;42589;45.536;9.032;2022-12-07T13:37:50;103.35;;;59.28;;
56712;SDS011;42589;45.536;9.032;2022-12-07T13:44:14;100.32;;;55.05;;
56712;SDS011;42589;45.536;9.032;2022-12-07T13:47:16;94.30;;;52.00;;
56712;SDS011;42589;45.536;9.032;2022-12-07T13:50:30;83.22;;;49.42;;
56712;SDS011;42589;45.536;9.032;2022-12-07T13:53:34;94.68;;;53.60;;
56712;SDS011;42589;45.536;9.032;2022-12-07T13:56:48;124.82;;;68.40;;
56712;SDS011;42589;45.536;9.032;2022-12-07T13:59:50;110.10;;;63.25;;
56712;SDS011;42589;45.536;9.032;2022-12-07T14:02:58;89.10;;;52.20;;
56712;SDS011;42589;45.536;9.032;2022-12-07T14:06:32;86.60;;;51.78;;
56712;SDS011;42589;45.536;9.032;2022-12-07T14:09:28;85.45;;;49.25;;
56712;SDS011;42589;45.536;9.032;2022-12-07T14:12:29;84.25;;;48.15;;
56712;SDS011;42589;45.536;9.032;2022-12-07T14:15:31;81.95;;;47.15;;
56712;SDS011;42589;45.536;9.032;2022-12-07T14:21:36;82.28;;;48.65;;
56712;SDS011;42589;45.536;9.032;2022-12-07T14:24:43;78.68;;;46.42;;
56712;SDS011;42589;45.536;9.032;2022-12-07T14:27:47;80.82;;;46.92;;
56712;SDS011;42589;45.536;9.032;2022-12-07T14:30:51;83.05;;;47.53;;
56712;SDS011;42589;45.536;9.032;2022-12-07T14:33:51;82.53;;;47.53;;
56712;SDS011;42589;45.536;9.032;2022-12-07T14:36:52;80.35;;;48.40;;
56712;SDS011;42589;45.536;9.032;2022-12-07T14:39:53;80.63;;;49.70;;
56712;SDS011;42589;45.536;9.032;2022-12-07T14:42:59;90.47;;;52.05;;
56712;SDS011;42589;45.536;9.032;2022-12-07T14:46:00;87.60;;;52.47;;
56712;SDS011;42589;45.536;9.032;2022-12-07T14:49:02;90.75;;;55.40;;
56712;SDS011;42589;45.536;9.032;2022-12-07T14:52:03;92.32;;;55.35;;
56712;SDS011;42589;45.536;9.032;2022-12-07T14:55:04;91.60;;;56.90;;
56712;SDS011;42589;45.536;9.032;2022-12-07T14:58:05;91.45;;;54.45;;
56712;SDS011;42589;45.536;9.032;2022-12-07T15:01:05;87.60;;;54.00;;
56712;SDS011;42589;45.536;9.032;2022-12-07T15:04:06;83.57;;;52.83;;
56712;SDS011;42589;45.536;9.032;2022-12-07T15:07:10;87.55;;;52.30;;
56712;SDS011;42589;45.536;9.032;2022-12-07T15:10:14;76.45;;;49.75;;
56712;SDS011;42589;45.536;9.032;2022-12-07T15:13:15;78.35;;;49.13;;
56712;SDS011;42589;45.536;9.032;2022-12-07T15:16:35;64.47;;;45.10;;
56712;SDS011;42589;45.536;9.032;2022-12-07T15:19:35;67.30;;;44.97;;
56712;SDS011;42589;45.536;9.032;2022-12-07T15:22:36;60.88;;;42.47;;
56712;SDS011;42589;45.536;9.032;2022-12-07T15:25:44;60.03;;;42.38;;
56712;SDS011;42589;45.536;9.032;2022-12-07T15:28:45;59.63;;;42.60;;
56712;SDS011;42589;45.536;9.032;2022-12-07T15:31:47;59.90;;;43.67;;
56712;SDS011;42589;45.536;9.032;2022-12-07T15:34:48;55.47;;;41.28;;
56712;SDS011;42589;45.536;9.032;2022-12-07T15:37:50;54.88;;;40.05;;
56712;SDS011;42589;45.536;9.032;2022-12-07T15:40:50;52.53;;;39.40;;
56712;SDS011;42589;45.536;9.032;2022-12-07T15:43:51;52.03;;;40.20;;
56712;SDS011;42589;45.536;9.032;2022-12-07T15:47:10;53.15;;;41.42;;
56712;SDS011;42589;45.536;9.032;2022-12-07T15:50:12;55.25;;;41.72;;
56712;SDS011;42589;45.536;9.032;2022-12-07T15:53:13;58.13;;;42.33;;
56712;SDS011;42589;45.536;9.032;2022-12-07T15:56:14;61.50;;;44.88;;
56712;SDS011;42589;45.536;9.032;2022-12-07T15:59:15;60.75;;;43.35;;
56712;SDS011;42589;45.536;9.032;2022-12-07T16:02:16;57.30;;;43.50;;
56712;SDS011;42589;45.536;9.032;2022-12-07T16:05:16;54.60;;;41.95;;
56712;SDS011;42589;45.536;9.032;2022-12-07T16:08:17;55.13;;;41.42;;
56712;SDS011;42589;45.536;9.032;2022-12-07T16:11:18;57.03;;;41.85;;
56712;SDS011;42589;45.536;9.032;2022-12-07T16:14:19;56.75;;;42.88;;
56712;SDS011;42589;45.536;9.032;2022-12-07T16:17:19;57.67;;;43.38;;
56712;SDS011;42589;45.536;9.032;2022-12-07T16:20:20;54.13;;;39.97;;
56712;SDS011;42589;45.536;9.032;2022-12-07T16:23:21;54.95;;;41.65;;
56712;SDS011;42589;45.536;9.032;2022-12-07T16:26:21;55.17;;;41.38;;
56712;SDS011;42589;45.536;9.032;2022-12-07T16:29:22;53.65;;;41.22;;
56712;SDS011;42589;45.536;9.032;2022-12-07T16:32:23;57.95;;;43.20;;
56712;SDS011;42589;45.536;9.032;2022-12-07T16:35:23;59.50;;;44.17;;
56712;SDS011;42589;45.536;9.032;2022-12-07T16:38:24;62.72;;;45.80;;
56712;SDS011;42589;45.536;9.032;2022-12-07T16:41:24;63.92;;;44.72;;
56712;SDS011;42589;45.536;9.032;2022-12-07T16:44:25;64.40;;;46.13;;
56712;SDS011;42589;45.536;9.032;2022-12-07T16:47:26;81.35;;;51.72;;
56712;SDS011;42589;45.536;9.032;2022-12-07T16:50:27;89.82;;;52.85;;
56712;SDS011;42589;45.536;9.032;2022-12-07T16:53:28;102.15;;;56.17;;
56712;SDS011;42589;45.536;9.032;2022-12-07T16:56:29;99.00;;;54.80;;
56712;SDS011;42589;45.536;9.032;2022-12-07T16:59:30;112.93;;;57.17;;
56712;SDS011;42589;45.536;9.032;2022-12-07T17:02:30;99.63;;;53.58;;
56712;SDS011;42589;45.536;9.032;2022-12-07T17:05:32;98.07;;;53.47;;
56712;SDS011;42589;45.536;9.032;2022-12-07T17:08:33;116.07;;;54.35;;
56712;SDS011;42589;45.536;9.032;2022-12-07T17:11:34;84.57;;;49.78;;
56712;SDS011;42589;45.536;9.032;2022-12-07T17:14:34;89.53;;;49.45;;
56712;SDS011;42589;45.536;9.032;2022-12-07T17:17:55;143.13;;;51.45;;
56712;SDS011;42589;45.536;9.032;2022-12-07T17:20:55;113.80;;;52.10;;
56712;SDS011;42589;45.536;9.032;2022-12-07T17:23:57;93.13;;;48.92;;
56712;SDS011;42589;45.536;9.032;2022-12-07T17:26:59;100.13;;;48.45;;
56712;SDS011;42589;45.536;9.032;2022-12-07T17:30:01;119.85;;;48.95;;
56712;SDS011;42589;45.536;9.032;2022-12-07T17:33:02;126.40;;;46.92;;
56712;SDS011;42589;45.536;9.032;2022-12-07T17:36:12;91.20;;;47.85;;
56712;SDS011;42589;45.536;9.032;2022-12-07T17:39:15;80.22;;;45.10;;
56712;SDS011;42589;45.536;9.032;2022-12-07T17:42:16;90.32;;;46.88;;
56712;SDS011;42589;45.536;9.032;2022-12-07T17:45:35;126.75;;;47.17;;
56712;SDS011;42589;45.536;9.032;2022-12-07T17:48:36;81.20;;;49.13;;
56712;SDS011;42589;45.536;9.032;2022-12-07T17:51:37;109.28;;;48.83;;
56712;SDS011;42589;45.536;9.032;2022-12-07T17:54:56;104.70;;;44.38;;
56712;SDS011;42589;45.536;9.032;2022-12-07T17:57:56;95.05;;;53.42;;
56712;SDS011;42589;45.536;9.032;2022-12-07T18:00:57;149.73;;;51.05;;
56712;SDS011;42589;45.536;9.032;2022-12-07T18:03:58;94.78;;;50.42;;
56712;SDS011;42589;45.536;9.032;2022-12-07T18:07:00;89.10;;;47.10;;
56712;SDS011;42589;45.536;9.032;2022-12-07T18:10:01;82.13;;;44.13;;
56712;SDS011;42589;45.536;9.032;2022-12-07T18:13:01;77.65;;;47.47;;
56712;SDS011;42589;45.536;9.032;2022-12-07T18:16:21;86.40;;;45.17;;
56712;SDS011;42589;45.536;9.032;2022-12-07T18:19:22;98.90;;;43.97;;
56712;SDS011;42589;45.536;9.032;2022-12-07T18:22:23;73.93;;;45.00;;
56712;SDS011;42589;45.536;9.032;2022-12-07T18:25:24;81.63;;;45.42;;
56712;SDS011;42589;45.536;9.032;2022-12-07T18:28:24;127.55;;;44.63;;
56712;SDS011;42589;45.536;9.032;2022-12-07T18:31:25;68.60;;;43.67;;
56712;SDS011;42589;45.536;9.032;2022-12-07T18:34:26;74.82;;;42.28;;
56712;SDS011;42589;45.536;9.032;2022-12-07T18:37:28;94.43;;;45.78;;
56712;SDS011;42589;45.536;9.032;2022-12-07T18:40:28;75.95;;;44.15;;
56712;SDS011;42589;45.536;9.032;2022-12-07T18:43:28;132.73;;;47.72;;
56712;SDS011;42589;45.536;9.032;2022-12-07T18:46:30;75.63;;;44.63;;
56712;SDS011;42589;45.536;9.032;2022-12-07T18:49:30;105.90;;;48.03;;
56712;SDS011;42589;45.536;9.032;2022-12-07T18:52:31;78.07;;;45.00;;
56712;SDS011;42589;45.536;9.032;2022-12-07T18:55:31;83.07;;;46.42;;
56712;SDS011;42589;45.536;9.032;2022-12-07T18:58:32;77.90;;;44.92;;
56712;SDS011;42589;45.536;9.032;2022-12-07T19:01:33;95.57;;;42.55;;
56712;SDS011;42589;45.536;9.032;2022-12-07T19:04:34;76.80;;;39.35;;
56712;SDS011;42589;45.536;9.032;2022-12-07T19:07:35;61.67;;;39.65;;
56712;SDS011;42589;45.536;9.032;2022-12-07T19:10:35;103.40;;;42.20;;
56712;SDS011;42589;45.536;9.032;2022-12-07T19:13:36;87.45;;;42.55;;
56712;SDS011;42589;45.536;9.032;2022-12-07T19:16:37;127.68;;;43.05;;
56712;SDS011;42589;45.536;9.032;2022-12-07T19:19:39;106.38;;;42.55;;
56712;SDS011;42589;45.536;9.032;2022-12-07T19:22:40;75.72;;;42.28;;
56712;SDS011;42589;45.536;9.032;2022-12-07T19:25:40;81.05;;;44.42;;
56712;SDS011;42589;45.536;9.032;2022-12-07T19:28:41;89.32;;;46.22;;
56712;SDS011;42589;45.536;9.032;2022-12-07T19:31:42;166.50;;;49.65;;
56712;SDS011;42589;45.536;9.032;2022-12-07T19:34:43;167.95;;;49.30;;
56712;SDS011;42589;45.536;9.032;2022-12-07T19:37:44;167.10;;;49.47;;
56712;SDS011;42589;45.536;9.032;2022-12-07T19:40:45;95.53;;;49.97;;
56712;SDS011;42589;45.536;9.032;2022-12-07T19:43:46;104.57;;;53.53;;
56712;SDS011;42589;45.536;9.032;2022-12-07T19:46:47;101.05;;;54.80;;